createdAt,value
2017-10-25T00:00:31.015Z,96.08
2017-10-25T00:01:41.472Z,96.75
2017-10-25T00:02:51.946Z,96.66
2017-10-25T00:04:02.392Z,96.08
2017-10-25T00:05:12.929Z,96.66
2017-10-25T00:06:22.996Z,96.75
2017-10-25T00:07:33.128Z,96.66
2017-10-25T00:08:43.301Z,96.66
2017-10-25T00:09:53.736Z,97.04
2017-10-25T00:11:04.288Z,97.23
2017-10-25T00:12:14.818Z,97.13
2017-10-25T00:13:25.337Z,97.04
2017-10-25T00:14:35.807Z,97.04
2017-10-25T00:15:46.296Z,97.13
2017-10-25T00:16:56.936Z,97.04
2017-10-25T00:18:07.401Z,97.04
2017-10-25T00:19:17.980Z,96.84
2017-10-25T00:20:28.441Z,96.94
2017-10-25T00:21:38.945Z,97.04
2017-10-25T00:22:49.413Z,96.94
2017-10-25T00:23:59.905Z,97.04
2017-10-25T00:25:10.349Z,97.04
2017-10-25T00:26:20.791Z,97.04
2017-10-25T00:27:31.236Z,96.84
2017-10-25T00:28:41.745Z,96.66
2017-10-25T00:29:52.232Z,96.75
2017-10-25T00:31:02.692Z,97.33
2017-10-25T00:32:13.159Z,97.23
2017-10-25T00:33:23.622Z,96.84
2017-10-25T00:34:34.063Z,96.66
2017-10-25T00:35:44.530Z,96.75
2017-10-25T00:36:54.997Z,96.75
2017-10-25T00:38:05.456Z,96.66
2017-10-25T00:39:15.608Z,97.61
2017-10-25T00:40:25.884Z,97.04
2017-10-25T00:41:36.391Z,96.94
2017-10-25T00:42:46.431Z,96.75
2017-10-25T00:43:57.076Z,96.66
2017-10-25T00:45:07.527Z,96.75
2017-10-25T00:46:18.008Z,96.94
2017-10-25T00:47:28.459Z,96.75
2017-10-25T00:48:38.935Z,96.94
2017-10-25T00:49:49.437Z,97.04
2017-10-25T00:50:59.912Z,97.23
2017-10-25T00:52:10.371Z,96.94
2017-10-25T00:53:20.408Z,96.84
2017-10-25T00:54:30.984Z,97.04
2017-10-25T00:55:41.451Z,97.52
2017-10-25T00:56:51.958Z,97.04
2017-10-25T00:58:02.406Z,97.04
2017-10-25T00:59:12.951Z,97.42
2017-10-25T01:00:23.546Z,97.61
2017-10-25T01:01:34.007Z,97.8
2017-10-25T01:02:44.454Z,97.04
2017-10-25T01:03:54.959Z,96.94
2017-10-25T01:05:05.476Z,97.04
2017-10-25T01:06:15.976Z,97.61
2017-10-25T01:07:26.430Z,96.94
2017-10-25T01:08:36.890Z,97.04
2017-10-25T01:09:47.353Z,97.04
2017-10-25T01:10:57.809Z,97.04
2017-10-25T01:12:08.297Z,96.94
2017-10-25T01:13:18.936Z,97.04
2017-10-25T01:14:29.434Z,97.04
2017-10-25T01:15:39.927Z,97.09
2017-10-25T01:16:50.480Z,97.04
2017-10-25T01:18:00.648Z,96.94
2017-10-25T01:19:11.105Z,96.99
2017-10-25T01:20:21.591Z,97.09
2017-10-25T01:21:32.072Z,97.04
2017-10-25T01:22:42.595Z,96.94
2017-10-25T01:23:53.119Z,97.04
2017-10-25T01:25:03.589Z,97.04
2017-10-25T01:26:14.056Z,96.94
2017-10-25T01:27:24.553Z,97.09
2017-10-25T01:28:34.792Z,97.04
2017-10-25T01:29:45.238Z,97.33
2017-10-25T01:30:55.687Z,97.66
2017-10-25T01:32:06.127Z,97.8
2017-10-25T01:33:16.586Z,97.56
2017-10-25T01:34:27.035Z,97.66
2017-10-25T01:35:37.508Z,97.8
2017-10-25T01:36:47.983Z,97.66
2017-10-25T01:37:58.447Z,97.85
2017-10-25T01:39:08.895Z,97.09
2017-10-25T01:40:19.408Z,97.56
2017-10-25T01:41:29.918Z,97.09
2017-10-25T01:42:40.381Z,96.89
2017-10-25T01:43:50.855Z,96.89
2017-10-25T01:45:01.318Z,96.89
2017-10-25T01:46:11.772Z,97.47
2017-10-25T01:47:22.271Z,96.99
2017-10-25T01:48:32.706Z,96.89
2017-10-25T01:49:43.162Z,96.8
2017-10-25T01:50:53.679Z,97.09
2017-10-25T01:52:03.542Z,96.8
2017-10-25T01:53:14.019Z,96.99
2017-10-25T01:54:24.559Z,96.7
2017-10-25T01:55:35.036Z,96.99
2017-10-25T01:56:45.485Z,96.7
2017-10-25T01:57:55.938Z,96.8
2017-10-25T01:59:06.459Z,96.7
2017-10-25T02:00:16.961Z,96.8
2017-10-25T02:01:27.097Z,97.09
2017-10-25T02:02:37.548Z,96.99
2017-10-25T02:03:48.007Z,96.99
2017-10-25T02:04:58.478Z,97.09
2017-10-25T02:06:08.528Z,96.8
2017-10-25T02:07:18.975Z,96.7
2017-10-25T02:08:29.524Z,96.99
2017-10-25T02:09:39.961Z,96.8
2017-10-25T02:10:50.576Z,96.8
2017-10-25T02:12:01.028Z,97.18
2017-10-25T02:13:11.491Z,96.99
2017-10-25T02:14:21.958Z,96.8
2017-10-25T02:15:32.413Z,96.89
2017-10-25T02:16:42.568Z,96.89
2017-10-25T02:17:53.058Z,96.99
2017-10-25T02:19:03.598Z,96.8
2017-10-25T02:20:14.172Z,96.7
2017-10-25T02:21:24.615Z,96.8
2017-10-25T02:22:35.096Z,96.7
2017-10-25T02:23:45.578Z,97.09
2017-10-25T02:24:56.141Z,96.89
2017-10-25T02:26:06.165Z,96.89
2017-10-25T02:27:16.667Z,97.09
2017-10-25T02:28:27.122Z,97.09
2017-10-25T02:29:37.574Z,97.18
2017-10-25T02:30:48.086Z,97.38
2017-10-25T02:31:58.530Z,96.99
2017-10-25T02:33:09.019Z,97.28
2017-10-25T02:34:19.793Z,96.51
2017-10-25T02:35:30.232Z,96.51
2017-10-25T02:36:40.831Z,96.42
2017-10-25T02:37:51.269Z,96.51
2017-10-25T02:39:01.820Z,96.51
2017-10-25T02:40:12.276Z,96.42
2017-10-25T02:41:22.776Z,96.42
2017-10-25T02:42:33.240Z,96.61
2017-10-25T02:43:43.688Z,96.42
2017-10-25T02:44:54.162Z,96.51
2017-10-25T02:46:04.620Z,96.8
2017-10-25T02:47:15.119Z,96.61
2017-10-25T02:48:25.249Z,96.42
2017-10-25T02:49:35.727Z,96.61
2017-10-25T02:50:46.246Z,96.32
2017-10-25T02:51:56.691Z,96.32
2017-10-25T02:53:06.772Z,96.32
2017-10-25T02:54:17.280Z,96.32
2017-10-25T02:55:27.765Z,96.61
2017-10-25T02:56:38.204Z,96.32
2017-10-25T02:57:48.356Z,96.51
2017-10-25T02:58:58.840Z,96.32
2017-10-25T03:00:09.309Z,96.51
2017-10-25T03:01:19.826Z,96.42
2017-10-25T03:02:30.310Z,96.42
2017-10-25T03:03:40.743Z,96.32
2017-10-25T03:04:51.224Z,96.42
2017-10-25T03:06:01.743Z,96.42
2017-10-25T03:07:12.221Z,96.42
2017-10-25T03:08:22.697Z,96.42
2017-10-25T03:09:33.137Z,96.51
2017-10-25T03:10:43.637Z,96.42
2017-10-25T03:11:54.111Z,96.42
2017-10-25T03:13:04.583Z,96.32
2017-10-25T03:14:15.093Z,96.42
2017-10-25T03:15:25.534Z,96.32
2017-10-25T03:16:35.970Z,96.42
2017-10-25T03:17:46.421Z,96.32
2017-10-25T03:18:56.871Z,96.32
2017-10-25T03:20:07.368Z,96.42
2017-10-25T03:21:17.834Z,96.51
2017-10-25T03:22:27.519Z,96.32
2017-10-25T03:23:37.654Z,96.61
2017-10-25T03:24:48.163Z,96.32
2017-10-25T03:25:58.607Z,96.51
2017-10-25T03:27:09.080Z,96.32
2017-10-25T03:28:20.528Z,96.32
2017-10-25T03:29:31.027Z,96.51
2017-10-25T03:30:41.503Z,96.61
2017-10-25T03:31:52.017Z,96.51
2017-10-25T03:33:02.764Z,96.51
2017-10-25T03:34:13.251Z,96.51
2017-10-25T03:35:23.705Z,96.42
2017-10-25T03:36:34.406Z,96.32
2017-10-25T03:37:44.975Z,96.51
2017-10-25T03:38:55.463Z,96.61
2017-10-25T03:40:06.045Z,96.42
2017-10-25T03:41:16.485Z,96.51
2017-10-25T03:42:26.925Z,96.42
2017-10-25T03:43:37.390Z,96.42
2017-10-25T03:44:47.894Z,96.42
2017-10-25T03:45:58.366Z,96.42
2017-10-25T03:47:08.821Z,96.32
2017-10-25T03:48:19.270Z,96.32
2017-10-25T03:49:29.791Z,96.61
2017-10-25T03:50:40.247Z,96.61
2017-10-25T03:51:50.377Z,96.51
2017-10-25T03:53:00.835Z,96.51
2017-10-25T03:54:11.280Z,96.51
2017-10-25T03:55:21.756Z,96.61
2017-10-25T03:56:31.861Z,96.61
2017-10-25T03:57:42.304Z,96.32
2017-10-25T03:58:52.796Z,96.61
2017-10-25T04:00:02.828Z,96.51
2017-10-25T04:01:13.414Z,96.7
2017-10-25T04:02:24.152Z,96.7
2017-10-25T04:03:34.595Z,96.32
2017-10-25T04:04:45.035Z,96.22
2017-10-25T04:05:55.496Z,96.32
2017-10-25T04:07:05.632Z,96.32
2017-10-25T04:08:16.181Z,96.32
2017-10-25T04:09:26.643Z,96.42
2017-10-25T04:10:37.101Z,96.42
2017-10-25T04:11:47.569Z,96.32
2017-10-25T04:12:58.339Z,96.42
2017-10-25T04:14:08.794Z,96.42
2017-10-25T04:15:19.248Z,96.51
2017-10-25T04:16:29.771Z,96.47
2017-10-25T04:17:40.311Z,96.61
2017-10-25T04:18:50.766Z,96.66
2017-10-25T04:20:01.383Z,96.61
2017-10-25T04:21:43.648Z,96.51
2017-10-25T04:22:54.129Z,96.61
2017-10-25T04:24:04.261Z,96.37
2017-10-25T04:25:14.704Z,96.75
2017-10-25T04:26:25.155Z,96.47
2017-10-25T04:27:35.617Z,96.61
2017-10-25T04:28:45.649Z,96.56
2017-10-25T04:29:56.144Z,96.47
2017-10-25T04:31:06.593Z,96.47
2017-10-25T04:32:17.209Z,96.27
2017-10-25T04:33:27.653Z,96.56
2017-10-25T04:34:38.162Z,96.7
2017-10-25T04:35:48.596Z,96.56
2017-10-25T04:36:59.093Z,96.66
2017-10-25T04:38:09.149Z,96.27
2017-10-25T04:39:19.581Z,96.56
2017-10-25T04:40:30.071Z,96.84
2017-10-25T04:41:40.529Z,96.18
2017-10-25T04:42:51.201Z,95.98
2017-10-25T04:44:01.643Z,95.98
2017-10-25T04:45:12.284Z,96.08
2017-10-25T04:46:22.786Z,96.94
2017-10-25T04:47:33.233Z,96.18
2017-10-25T04:48:43.782Z,96.18
2017-10-25T04:49:54.246Z,96.08
2017-10-25T04:51:04.737Z,96.08
2017-10-25T04:52:15.311Z,96.27
2017-10-25T04:53:25.888Z,96.18
2017-10-25T04:54:36.365Z,96.27
2017-10-25T04:55:46.483Z,96.18
2017-10-25T04:56:56.948Z,96.08
2017-10-25T04:58:07.398Z,96.27
2017-10-25T04:59:17.560Z,96.27
2017-10-25T05:00:28.281Z,96.37
2017-10-25T05:01:38.752Z,96.37
2017-10-25T05:02:49.538Z,96.08
2017-10-25T05:04:00.018Z,95.98
2017-10-25T05:05:10.449Z,96.32
2017-10-25T05:06:20.917Z,95.65
2017-10-25T05:07:31.366Z,96.18
2017-10-25T05:08:41.694Z,96.66
2017-10-25T05:09:52.145Z,95.7
2017-10-25T05:11:02.635Z,96.56
2017-10-25T05:12:13.109Z,96.27
2017-10-25T05:13:23.585Z,96.27
2017-10-25T05:14:34.049Z,95.6
2017-10-25T05:15:44.539Z,96.37
2017-10-25T05:16:55.049Z,96.66
2017-10-25T05:18:05.643Z,96.66
2017-10-25T05:19:16.382Z,96.47
2017-10-25T05:20:26.836Z,96.27
2017-10-25T05:21:37.349Z,96.37
2017-10-25T05:22:47.807Z,96.7
2017-10-25T05:23:58.333Z,96.08
2017-10-25T05:25:08.791Z,95.7
2017-10-25T05:26:19.230Z,96.13
2017-10-25T05:27:29.922Z,96.08
2017-10-25T05:28:40.374Z,95.94
2017-10-25T05:29:50.843Z,96.32
2017-10-25T05:31:01.403Z,96.13
2017-10-25T05:32:11.937Z,96.37
2017-10-25T05:33:22.412Z,96.32
2017-10-25T05:34:32.971Z,96.18
2017-10-25T05:35:43.454Z,96.37
2017-10-25T05:36:53.928Z,96.18
2017-10-25T05:38:04.393Z,96.42
2017-10-25T05:39:14.970Z,96.47
2017-10-25T05:40:25.410Z,96.47
2017-10-25T05:41:35.895Z,96.56
2017-10-25T05:42:46.373Z,96.42
2017-10-25T05:43:56.913Z,96.32
2017-10-25T05:45:07.402Z,96.42
2017-10-25T05:46:17.908Z,96.61
2017-10-25T05:47:28.486Z,96.51
2017-10-25T05:48:38.986Z,95.98
2017-10-25T05:49:49.512Z,95.98
2017-10-25T05:51:00.005Z,96.18
2017-10-25T05:52:10.229Z,95.98
2017-10-25T05:53:20.744Z,96.18
2017-10-25T05:54:31.233Z,96.08
2017-10-25T05:55:41.744Z,96.18
2017-10-25T05:56:52.224Z,96.08
2017-10-25T05:58:02.679Z,96.37
2017-10-25T05:59:13.212Z,95.98
2017-10-25T06:00:23.703Z,95.94
2017-10-25T06:01:34.331Z,95.7
2017-10-25T06:02:44.802Z,95.6
2017-10-25T06:03:55.231Z,95.51
2017-10-25T06:05:05.712Z,95.46
2017-10-25T06:06:15.918Z,95.41
2017-10-25T06:07:26.443Z,95.41
2017-10-25T06:08:36.569Z,95.94
2017-10-25T06:09:47.037Z,95.36
2017-10-25T06:10:57.503Z,95.89
2017-10-25T06:12:07.963Z,95.65
2017-10-25T06:13:18.476Z,95.27
2017-10-25T06:14:28.929Z,95.75
2017-10-25T06:15:39.394Z,95.84
2017-10-25T06:16:49.446Z,95.94
2017-10-25T06:17:59.914Z,95.98
2017-10-25T06:19:10.498Z,95.36
2017-10-25T06:20:20.942Z,95.65
2017-10-25T06:21:31.077Z,95.84
2017-10-25T06:22:41.517Z,95.65
2017-10-25T06:23:51.951Z,95.75
2017-10-25T06:25:02.430Z,95.75
2017-10-25T06:26:12.857Z,95.65
2017-10-25T06:27:23.329Z,95.56
2017-10-25T06:28:33.768Z,95.7
2017-10-25T06:29:44.260Z,95.84
2017-10-25T06:30:54.707Z,95.17
2017-10-25T06:32:04.818Z,95.27
2017-10-25T06:33:15.289Z,95.27
2017-10-25T06:34:25.746Z,95.22
2017-10-25T06:35:36.239Z,95.07
2017-10-25T06:36:46.688Z,95.6
2017-10-25T06:37:57.192Z,95.46
2017-10-25T06:39:07.642Z,95.6
2017-10-25T06:40:18.231Z,95.31
2017-10-25T06:41:28.700Z,95.51
2017-10-25T06:42:39.166Z,95.03
2017-10-25T06:43:49.630Z,95.31
2017-10-25T06:45:00.104Z,95.12
2017-10-25T06:46:10.576Z,95.41
2017-10-25T06:47:20.745Z,95.31
2017-10-25T06:48:31.207Z,94.74
2017-10-25T06:49:41.636Z,94.93
2017-10-25T06:50:52.103Z,94.55
2017-10-25T06:52:02.686Z,94.45
2017-10-25T06:53:13.140Z,94.74
2017-10-25T06:54:23.315Z,94.45
2017-10-25T06:55:33.489Z,93.88
2017-10-25T06:56:43.968Z,93.78
2017-10-25T06:57:54.441Z,93.63
2017-10-25T06:59:05.149Z,93.54
2017-10-25T07:00:15.609Z,93.73
2017-10-25T07:01:26.189Z,93.06
2017-10-25T07:02:36.687Z,93.06
2017-10-25T07:03:47.139Z,92.97
2017-10-25T07:04:57.712Z,93.01
2017-10-25T07:06:08.172Z,92.39
2017-10-25T07:07:18.645Z,92.34
2017-10-25T07:08:29.093Z,92.05
2017-10-25T07:09:39.606Z,91.86
2017-10-25T07:10:50.185Z,91.48
2017-10-25T07:12:00.652Z,91.09
2017-10-25T07:13:11.175Z,90.95
2017-10-25T07:14:21.651Z,90.75
2017-10-25T07:15:32.189Z,90.56
2017-10-25T07:16:42.649Z,89.89
2017-10-25T07:17:53.127Z,89.79
2017-10-25T07:19:03.635Z,89.7
2017-10-25T07:20:14.096Z,90.03
2017-10-25T07:21:24.588Z,88.84
2017-10-25T07:22:35.083Z,89.22
2017-10-25T07:23:45.594Z,89.32
2017-10-25T07:24:55.758Z,89.51
2017-10-25T07:26:06.254Z,88.84
2017-10-25T07:27:16.901Z,89.22
2017-10-25T07:28:27.592Z,89.51
2017-10-25T07:29:38.266Z,89.7
2017-10-25T07:30:48.743Z,89.61
2017-10-25T07:31:58.932Z,89.47
2017-10-25T07:33:09.408Z,89.85
2017-10-25T07:34:19.861Z,89.85
2017-10-25T07:35:30.449Z,89.56
2017-10-25T07:36:41.004Z,89.56
2017-10-25T07:37:51.470Z,89.47
2017-10-25T07:39:01.943Z,89.75
2017-10-25T07:40:12.103Z,89.75
2017-10-25T07:41:22.575Z,89.65
2017-10-25T07:42:33.041Z,89.94
2017-10-25T07:43:43.528Z,90.57
2017-10-25T07:44:54.053Z,90.28
2017-10-25T07:46:04.584Z,90.28
2017-10-25T07:47:15.068Z,90.19
2017-10-25T07:48:25.562Z,90.38
2017-10-25T07:49:36.028Z,90.57
2017-10-25T07:50:46.535Z,90.19
2017-10-25T07:51:57.006Z,90.38
2017-10-25T07:53:07.497Z,90.19
2017-10-25T07:54:17.993Z,90.57
2017-10-25T07:55:28.566Z,90.38
2017-10-25T07:56:38.687Z,90.67
2017-10-25T07:57:49.135Z,90.76
2017-10-25T07:58:59.676Z,90.38
2017-10-25T08:00:10.157Z,90.57
2017-10-25T08:01:20.606Z,90.76
2017-10-25T08:02:31.121Z,90.86
2017-10-25T08:03:41.604Z,90.86
2017-10-25T08:04:52.065Z,91.14
2017-10-25T08:06:02.528Z,91.53
2017-10-25T08:07:13.314Z,91.14
2017-10-25T08:08:23.943Z,91.34
2017-10-25T08:09:34.412Z,91.14
2017-10-25T08:10:45.041Z,91.34
2017-10-25T08:11:55.533Z,91.34
2017-10-25T08:13:05.997Z,90.95
2017-10-25T08:14:16.774Z,91.72
2017-10-25T08:15:26.936Z,91.91
2017-10-25T08:16:37.439Z,91.72
2017-10-25T08:17:48.010Z,91.82
2017-10-25T08:18:58.475Z,91.53
2017-10-25T08:20:08.954Z,91.63
2017-10-25T08:21:19.449Z,91.63
2017-10-25T08:22:30.029Z,91.24
2017-10-25T08:23:40.534Z,91.91
2017-10-25T08:24:51.221Z,91.72
2017-10-25T08:26:01.729Z,92.1
2017-10-25T08:27:12.279Z,92.39
2017-10-25T08:28:22.748Z,92.1
2017-10-25T08:29:33.220Z,92.01
2017-10-25T08:30:43.681Z,92.3
2017-10-25T08:31:54.184Z,91.91
2017-10-25T08:33:04.728Z,92.01
2017-10-25T08:34:15.189Z,92.1
2017-10-25T08:35:25.678Z,92.01
2017-10-25T08:36:36.166Z,91.91
2017-10-25T08:37:47.039Z,92.1
2017-10-25T08:38:57.679Z,92.3
2017-10-25T08:40:08.256Z,92.1
2017-10-25T08:41:19.240Z,92.1
2017-10-25T08:42:29.691Z,91.91
2017-10-25T08:43:40.280Z,92.15
2017-10-25T08:44:50.803Z,91.77
2017-10-25T08:46:00.976Z,92.24
2017-10-25T08:47:11.448Z,91.48
2017-10-25T08:48:21.907Z,91.67
2017-10-25T08:49:32.411Z,91.67
2017-10-25T08:50:42.883Z,91.77
2017-10-25T08:51:53.346Z,91.28
2017-10-25T08:53:03.803Z,91.09
2017-10-25T08:54:14.317Z,91.28
2017-10-25T08:55:24.807Z,91.38
2017-10-25T08:56:35.297Z,90.66
2017-10-25T08:57:45.782Z,90.66
2017-10-25T08:58:56.248Z,90.47
2017-10-25T09:00:06.751Z,90.18
2017-10-25T09:01:17.232Z,90.37
2017-10-25T09:02:27.702Z,89.89
2017-10-25T09:03:38.199Z,89.89
2017-10-25T09:04:48.677Z,89.7
2017-10-25T09:05:58.699Z,89.51
2017-10-25T09:07:09.209Z,88.93
2017-10-25T09:08:19.680Z,89.17
2017-10-25T09:09:30.153Z,88.88
2017-10-25T09:10:40.643Z,88.69
2017-10-25T09:11:51.132Z,88.54
2017-10-25T09:13:01.712Z,88.45
2017-10-25T09:14:12.163Z,88.64
2017-10-25T09:15:22.687Z,88.25
2017-10-25T09:16:33.139Z,87.87
2017-10-25T09:17:43.626Z,87.96
2017-10-25T09:18:54.124Z,87.87
2017-10-25T09:20:04.569Z,88.06
2017-10-25T09:21:15.083Z,87.68
2017-10-25T09:22:25.561Z,88.16
2017-10-25T09:23:36.380Z,87.58
2017-10-25T09:24:46.817Z,87.77
2017-10-25T09:25:57.320Z,87.68
2017-10-25T09:27:07.875Z,87.58
2017-10-25T09:28:18.385Z,87.58
2017-10-25T09:29:28.843Z,87.58
2017-10-25T09:30:39.425Z,87.58
2017-10-25T09:31:50.136Z,87.77
2017-10-25T09:33:00.607Z,86.91
2017-10-25T09:34:11.111Z,87.01
2017-10-25T09:35:20.948Z,86.81
2017-10-25T09:36:31.461Z,86.91
2017-10-25T09:37:41.945Z,86.72
2017-10-25T09:38:52.126Z,87.1
2017-10-25T09:40:02.711Z,86.24
2017-10-25T09:41:13.202Z,85.61
2017-10-25T09:42:23.704Z,85.75
2017-10-25T09:43:34.390Z,85.46
2017-10-25T09:44:45.079Z,85.02
2017-10-25T09:45:55.570Z,84.29
2017-10-25T09:47:06.088Z,84.29
2017-10-25T09:48:16.569Z,84.05
2017-10-25T09:49:27.208Z,83.31
2017-10-25T09:50:37.658Z,80.91
2017-10-25T09:51:47.788Z,81.43
2017-10-25T09:52:58.266Z,80.56
2017-10-25T09:54:08.780Z,80.76
2017-10-25T09:55:19.257Z,80.18
2017-10-25T09:56:29.700Z,79.79
2017-10-25T09:57:40.196Z,79.79
2017-10-25T09:58:50.755Z,80.33
2017-10-25T10:00:01.248Z,79.75
2017-10-25T10:01:11.752Z,79.56
2017-10-25T10:02:22.278Z,79.27
2017-10-25T10:03:32.476Z,79.36
2017-10-25T10:04:42.545Z,79.17
2017-10-25T10:05:53.055Z,77.53
2017-10-25T10:07:03.528Z,77.76
2017-10-25T10:08:13.711Z,77.09
2017-10-25T10:09:24.186Z,76.84
2017-10-25T10:10:34.390Z,76.2
2017-10-25T10:11:44.861Z,75.82
2017-10-25T10:12:55.343Z,74.57
2017-10-25T10:14:05.856Z,74.66
2017-10-25T10:15:16.370Z,72.79
2017-10-25T10:16:26.969Z,73.47
2017-10-25T10:17:37.500Z,73.91
2017-10-25T10:18:47.988Z,73.82
2017-10-25T10:19:58.557Z,73.05
2017-10-25T10:21:08.730Z,73.88
2017-10-25T10:22:19.273Z,73.3
2017-10-25T10:23:29.810Z,73.55
2017-10-25T10:24:40.284Z,74.22
2017-10-25T10:25:50.498Z,74.67
2017-10-25T10:27:01.124Z,74.29
2017-10-25T10:28:11.570Z,74.57
2017-10-25T10:29:22.124Z,73.9
2017-10-25T10:30:32.700Z,74.54
2017-10-25T10:31:43.203Z,74.44
2017-10-25T10:32:53.719Z,74.54
2017-10-25T10:34:04.181Z,74.63
2017-10-25T10:35:14.383Z,74.92
2017-10-25T10:36:24.899Z,75.02
2017-10-25T10:37:35.377Z,75.31
2017-10-25T10:38:45.940Z,75.21
2017-10-25T10:39:56.428Z,75.69
2017-10-25T10:41:06.967Z,75.4
2017-10-25T10:42:17.482Z,75.98
2017-10-25T10:43:27.991Z,75.49
2017-10-25T10:44:38.581Z,74.63
2017-10-25T10:45:49.305Z,74.54
2017-10-25T10:46:59.844Z,74.79
2017-10-25T10:48:10.297Z,74.88
2017-10-25T10:49:20.749Z,75.21
2017-10-25T10:50:31.272Z,74.44
2017-10-25T10:51:41.728Z,74.54
2017-10-25T10:52:52.219Z,73.38
2017-10-25T10:54:02.738Z,72.74
2017-10-25T10:55:13.292Z,72.94
2017-10-25T10:56:23.824Z,72.65
2017-10-25T10:57:33.984Z,71.81
2017-10-25T10:58:44.345Z,71.14
2017-10-25T10:59:54.907Z,68.93
2017-10-25T11:01:05.432Z,69.79
2017-10-25T11:02:15.501Z,69.31
2017-10-25T11:03:25.973Z,68.35
2017-10-25T11:04:36.444Z,69.51
2017-10-25T11:05:47.003Z,68.77
2017-10-25T11:06:57.480Z,68.96
2017-10-25T11:08:08.191Z,68.58
2017-10-25T11:09:18.677Z,68.87
2017-10-25T11:10:29.191Z,67.61
2017-10-25T11:11:39.649Z,67.13
2017-10-25T11:12:50.216Z,66.36
2017-10-25T11:14:00.397Z,65.98
2017-10-25T11:15:10.910Z,66.46
2017-10-25T11:16:21.429Z,66.55
2017-10-25T11:17:32.050Z,67.03
2017-10-25T11:18:42.522Z,66.94
2017-10-25T11:19:53.102Z,67.23
2017-10-25T11:21:03.667Z,65.88
2017-10-25T11:22:14.173Z,66.17
2017-10-25T11:23:24.318Z,67.23
2017-10-25T11:25:06.800Z,67.13
2017-10-25T11:26:17.612Z,68.06
2017-10-25T11:27:28.136Z,67.81
2017-10-25T11:28:38.759Z,67.81
2017-10-25T11:29:49.263Z,66.81
2017-10-25T11:30:59.737Z,67.03
2017-10-25T11:32:10.265Z,66.55
2017-10-25T11:33:20.494Z,66.85
2017-10-25T11:34:30.997Z,66.94
2017-10-25T11:35:41.193Z,66.65
2017-10-25T11:36:51.683Z,66.85
2017-10-25T11:38:01.754Z,67.42
2017-10-25T11:39:12.206Z,66.07
2017-10-25T11:40:22.346Z,67.23
2017-10-25T11:41:32.874Z,67.13
2017-10-25T11:42:43.404Z,66.85
2017-10-25T11:43:53.573Z,67.23
2017-10-25T11:45:03.760Z,66.27
2017-10-25T11:46:13.901Z,66.81
2017-10-25T11:47:24.404Z,66.94
2017-10-25T11:48:34.951Z,66.36
2017-10-25T11:49:45.482Z,66.49
2017-10-25T11:50:56.031Z,66.3
2017-10-25T11:52:06.532Z,65.56
2017-10-25T11:53:17.033Z,65.37
2017-10-25T11:54:27.571Z,62.48
2017-10-25T11:55:38.191Z,61.99
2017-10-25T11:56:48.700Z,62.38
2017-10-25T11:57:59.259Z,63.54
2017-10-25T11:59:09.845Z,63.7
2017-10-25T12:00:20.347Z,64.18
2017-10-25T12:01:30.841Z,64.28
2017-10-25T12:02:41.347Z,63.95
2017-10-25T12:03:51.859Z,64.28
2017-10-25T12:05:02.431Z,63.6
2017-10-25T12:06:12.920Z,64.08
2017-10-25T12:07:23.399Z,63.73
2017-10-25T12:08:33.899Z,62.12
2017-10-25T12:09:44.414Z,61.54
2017-10-25T12:10:54.646Z,61.86
2017-10-25T12:12:04.943Z,60.71
2017-10-25T12:13:15.507Z,61.12
2017-10-25T12:14:26.249Z,59.96
2017-10-25T12:15:36.796Z,59.51
2017-10-25T12:16:47.413Z,59.8
2017-10-25T12:17:57.909Z,58.35
2017-10-25T12:19:08.683Z,58.64
2017-10-25T12:20:19.165Z,59.86
2017-10-25T12:21:29.408Z,60.83
2017-10-25T12:22:39.888Z,61.19
2017-10-25T12:23:50.410Z,61.96
2017-10-25T12:25:01.131Z,60.89
2017-10-25T12:26:11.736Z,61.96
2017-10-25T12:27:22.209Z,61.83
2017-10-25T12:28:32.729Z,62.31
2017-10-25T12:29:43.209Z,61.35
2017-10-25T12:30:53.689Z,61.9
2017-10-25T12:32:04.166Z,61.99
2017-10-25T12:33:14.687Z,62.25
2017-10-25T12:34:25.191Z,62.73
2017-10-25T12:35:35.362Z,63.21
2017-10-25T12:36:45.842Z,63.79
2017-10-25T12:37:56.353Z,62.73
2017-10-25T12:39:06.842Z,63.6
2017-10-25T12:40:17.462Z,63.6
2017-10-25T12:41:27.957Z,63.6
2017-10-25T12:42:38.448Z,63.79
2017-10-25T12:43:49.015Z,63.5
2017-10-25T12:44:59.598Z,63.41
2017-10-25T12:46:10.067Z,62.96
2017-10-25T12:47:20.624Z,63.24
2017-10-25T12:48:31.225Z,63.34
2017-10-25T12:49:41.938Z,62.66
2017-10-25T12:50:52.709Z,62.79
2017-10-25T12:52:03.168Z,63.54
2017-10-25T12:53:13.770Z,63.63
2017-10-25T12:54:24.258Z,63.73
2017-10-25T12:55:34.745Z,63.54
2017-10-25T12:56:45.292Z,63.54
2017-10-25T12:57:55.821Z,63.82
2017-10-25T12:59:06.328Z,64.4
2017-10-25T13:00:16.848Z,64.21
2017-10-25T13:01:27.571Z,63.82
2017-10-25T13:02:38.059Z,64.5
2017-10-25T13:03:48.606Z,64.02
2017-10-25T13:04:59.185Z,63.7
2017-10-25T13:06:09.720Z,64.56
2017-10-25T13:07:20.252Z,64.56
2017-10-25T13:08:30.434Z,64.66
2017-10-25T13:09:40.938Z,64.53
2017-10-25T13:10:51.461Z,64.53
2017-10-25T13:12:02.041Z,64.79
2017-10-25T13:13:12.509Z,65.27
2017-10-25T13:14:23.033Z,65.75
2017-10-25T13:15:33.761Z,66.01
2017-10-25T13:16:44.243Z,66.01
2017-10-25T13:17:54.817Z,66.3
2017-10-25T13:19:37.116Z,65.72
2017-10-25T13:20:47.781Z,65.69
2017-10-25T13:21:58.260Z,65.78
2017-10-25T13:23:08.793Z,65.97
2017-10-25T13:24:19.262Z,65.66
2017-10-25T13:25:29.786Z,66.14
2017-10-25T13:26:40.264Z,65.75
2017-10-25T13:27:50.769Z,66.04
2017-10-25T13:29:01.282Z,66.33
2017-10-25T13:30:11.846Z,66.04
2017-10-25T13:31:22.343Z,66.42
2017-10-25T13:32:32.908Z,67
2017-10-25T13:33:43.429Z,67.38
2017-10-25T13:34:53.906Z,67.1
2017-10-25T13:36:04.470Z,67.1
2017-10-25T13:37:15.046Z,67.45
2017-10-25T13:38:25.257Z,66.58
2017-10-25T13:39:35.993Z,67.25
2017-10-25T13:40:46.492Z,67.35
2017-10-25T13:41:57.275Z,67.16
2017-10-25T13:43:07.943Z,66.97
2017-10-25T13:44:18.502Z,66.97
2017-10-25T13:45:29.096Z,66.68
2017-10-25T13:46:39.282Z,66.68
2017-10-25T13:47:49.853Z,66.68
2017-10-25T13:49:00.346Z,66.49
2017-10-25T13:50:10.510Z,67.07
2017-10-25T13:51:21.085Z,66.87
2017-10-25T13:52:31.588Z,66.87
2017-10-25T13:53:42.148Z,66.87
2017-10-25T13:54:52.710Z,66.97
2017-10-25T13:56:03.300Z,66.58
2017-10-25T13:57:13.831Z,66.97
2017-10-25T13:58:24.303Z,67
2017-10-25T13:59:34.822Z,67.38
2017-10-25T14:00:45.361Z,67.16
2017-10-25T14:01:55.561Z,66.71
2017-10-25T14:03:06.204Z,67.38
2017-10-25T14:04:16.834Z,67.68
2017-10-25T14:05:27.360Z,67.68
2017-10-25T14:06:37.867Z,67.54
2017-10-25T14:07:48.496Z,68.15
2017-10-25T14:08:58.645Z,68.06
2017-10-25T14:10:09.173Z,68.44
2017-10-25T14:11:19.668Z,68.06
2017-10-25T14:12:29.999Z,68.31
2017-10-25T14:13:40.549Z,68.31
2017-10-25T14:14:51.052Z,68.79
2017-10-25T14:16:01.524Z,68.79
2017-10-25T14:17:12.152Z,68.79
2017-10-25T14:18:22.684Z,69.46
2017-10-25T14:19:33.215Z,69.27
2017-10-25T14:20:43.814Z,69.37
2017-10-25T14:21:54.342Z,69.46
2017-10-25T14:23:04.805Z,69.66
2017-10-25T14:24:15.322Z,70.14
2017-10-25T14:25:25.820Z,69.66
2017-10-25T14:26:36.443Z,70.14
2017-10-25T14:27:47.083Z,69.62
2017-10-25T14:28:57.633Z,70.62
2017-10-25T14:30:08.168Z,70.33
2017-10-25T14:31:19.638Z,70.68
2017-10-25T14:32:30.151Z,70.39
2017-10-25T14:33:40.876Z,70.1
2017-10-25T14:34:51.384Z,70.39
2017-10-25T14:36:01.872Z,70.68
2017-10-25T14:37:12.363Z,70.39
2017-10-25T14:38:22.865Z,70.1
2017-10-25T14:39:33.475Z,70.78
2017-10-25T14:40:44.004Z,70.78
2017-10-25T14:41:54.594Z,70.68
2017-10-25T14:43:05.094Z,71.06
2017-10-25T14:44:15.609Z,71.06
2017-10-25T14:45:25.772Z,71.16
2017-10-25T14:46:36.365Z,71.22
2017-10-25T14:47:46.872Z,71.12
2017-10-25T14:48:57.434Z,71.55
2017-10-25T14:50:08.267Z,71.55
2017-10-25T14:51:18.753Z,72.08
2017-10-25T14:52:29.221Z,71.7
2017-10-25T14:53:39.754Z,71.8
2017-10-25T14:54:50.285Z,71.61
2017-10-25T14:56:00.760Z,71.8
2017-10-25T14:57:11.273Z,71.98
2017-10-25T14:58:21.915Z,72.47
2017-10-25T14:59:32.398Z,72.28
2017-10-25T15:00:42.955Z,72.08
2017-10-25T15:01:53.525Z,72.66
2017-10-25T15:03:04.091Z,72.66
2017-10-25T15:04:14.262Z,73.33
2017-10-25T15:05:24.790Z,73.62
2017-10-25T15:06:35.301Z,73.81
2017-10-25T15:07:45.798Z,73.33
2017-10-25T15:08:56.284Z,74.48
2017-10-25T15:10:06.831Z,74.77
2017-10-25T15:11:17.535Z,74.26
2017-10-25T15:12:28.254Z,74.35